Boornbergum, Netherlands
Current Conditions -  °F | °C
As of 11:25 PM on Tuesday 21 Oct 2014 (Local Time) from EHLW Reporting Station
Light Rain Light Rain  
Wind Chill: 50°   Ceiling: 4000
Heat Index: 50°   Visibility: 4mi
Dew Point: 45°   Wind: 35mph
Humidity: 82%   Direction: 310°NW
Pressure: 29.59"   Gusts: 48mph
Location:  53.08°N, 6.05°E
Report Text: EHLW 212125Z AUTO 31030G42KT 6000 -RA FEW018 SCT034 BKN040 10/07 Q1002 RERA REDZ WHT
Loading
Personal Weather Stations






























Interactive Weather Map
Tropical Storm Tracking
New forecast layout! Learn more

10-Day Weather Forecast

Advertisements
Track Severe Weather on mobile